Time;durP1;ratioP1;P1;durP2;ratioP2;P2;SDS_P1;SDS_P2;PMS_P1;PMS_P2;Temp;Humidity;BMP_temperature;BMP_pressure;BME280_temperature;BME280_humidity;BME280_pressure;Samples;Min_cycle;Max_cycle;Signal;HPM_P1;HPM_P2
2022/03/29 00:01:01;;;;;;;67.73;62.03;;;8.80;96.10;;;;;;5039160;28;20941;-83
2022/03/29 00:03:28;;;;;;;85.97;79.53;;;8.90;96.00;;;;;;5038803;28;20455;-84
2022/03/29 00:05:55;;;;;;;100.33;93.53;;;8.80;96.70;;;;;;5039866;28;21003;-84
2022/03/29 00:08:22;;;;;;;106.77;99.67;;;8.80;97.20;;;;;;5039850;28;20452;-84
2022/03/29 00:10:49;;;;;;;94.43;87.43;;;8.60;97.50;;;;;;5039593;28;20460;-84
2022/03/29 00:13:16;;;;;;;104.50;96.43;;;8.60;97.50;;;;;;5039882;28;20715;-84
2022/03/29 00:15:44;;;;;;;123.30;115.90;;;8.70;97.50;;;;;;5039428;28;20468;-83
2022/03/29 00:18:11;;;;;;;122.77;115.13;;;8.40;97.70;;;;;;5039337;28;20452;-84
2022/03/29 00:20:37;;;;;;;126.17;118.83;;;8.40;98.00;;;;;;5039670;28;20463;-84
2022/03/29 00:23:05;;;;;;;124.50;117.30;;;8.50;97.90;;;;;;5039494;28;20444;-84
2022/03/29 00:25:32;;;;;;;132.77;125.47;;;8.40;98.10;;;;;;5039364;28;20476;-84
2022/03/29 00:27:59;;;;;;;148.23;140.03;;;8.30;98.40;;;;;;5038991;28;20459;-83
2022/03/29 00:30:26;;;;;;;176.10;167.57;;;8.30;98.80;;;;;;5038658;28;20452;-83
2022/03/29 00:32:55;;;;;;;220.33;209.67;;;8.10;99.30;;;;;;5038869;28;20483;-84
2022/03/29 00:35:24;;;;;;;247.50;236.30;;;8.00;99.60;;;;;;5038923;28;20472;-83
2022/03/29 00:37:51;;;;;;;309.70;295.87;;;7.90;99.90;;;;;;5038911;28;20452;-84
2022/03/29 00:40:19;;;;;;;300.93;287.77;;;8.00;99.90;;;;;;5039226;28;20948;-83
2022/03/29 00:42:46;;;;;;;292.30;279.83;;;7.90;99.90;;;;;;5039384;28;20456;-83
2022/03/29 00:45:12;;;;;;;286.83;273.77;;;7.90;99.90;;;;;;5039029;28;20472;-84
2022/03/29 00:47:39;;;;;;;310.53;297.57;;;7.80;99.90;;;;;;5039366;28;20456;-84
2022/03/29 00:50:08;;;;;;;282.87;270.47;;;7.90;99.90;;;;;;5038982;28;20459;-82
2022/03/29 00:52:35;;;;;;;311.33;298.07;;;7.90;99.90;;;;;;5039262;28;20476;-84
2022/03/29 00:55:02;;;;;;;320.63;304.53;;;7.90;99.90;;;;;;5039748;28;20472;-84
2022/03/29 00:57:29;;;;;;;286.67;273.23;;;7.80;99.90;;;;;;5039449;28;20475;-83
2022/03/29 00:59:56;;;;;;;286.80;273.87;;;8.00;99.90;;;;;;5039021;28;20453;-84
2022/03/29 01:02:23;;;;;;;291.73;278.40;;;7.90;99.90;;;;;;5039170;28;20464;-83
2022/03/29 01:04:50;;;;;;;299.63;286.50;;;7.90;99.90;;;;;;5039187;28;20491;-84
2022/03/29 01:07:18;;;;;;;291.57;278.53;;;8.00;99.90;;;;;;5039078;28;20448;-84
2022/03/29 01:09:45;;;;;;;307.33;293.53;;;8.00;99.90;;;;;;5038806;28;20455;-83
2022/03/29 01:12:12;;;;;;;338.70;324.27;;;7.80;99.90;;;;;;5039152;28;20480;-83
2022/03/29 01:14:40;;;;;;;338.83;323.33;;;7.80;99.90;;;;;;5041119;28;20486;-84
2022/03/29 01:20:02;;;;;;;345.37;329.13;;;7.80;99.90;;;;;;4995271;28;20463;-84
2022/03/29 01:22:31;;;;;;;351.70;336.37;;;7.70;99.90;;;;;;5042985;28;20541;-83
2022/03/29 01:24:58;;;;;;;307.73;293.60;;;7.80;99.90;;;;;;5042634;28;20472;-84
2022/03/29 01:27:26;;;;;;;291.10;278.43;;;7.80;99.90;;;;;;5042635;28;20871;-84
2022/03/29 01:29:57;;;;;;;298.93;286.23;;;8.00;99.90;;;;;;5042422;28;20480;-84
2022/03/29 01:32:27;;;;;;;303.90;289.00;;;7.90;99.90;;;;;;5042406;28;20471;-84
2022/03/29 01:34:54;;;;;;;326.37;312.10;;;7.80;99.90;;;;;;5042797;28;20479;-84
2022/03/29 01:37:21;;;;;;;342.13;326.97;;;7.60;99.90;;;;;;5042774;28;20459;-84
2022/03/29 01:39:49;;;;;;;391.93;375.50;;;7.60;99.90;;;;;;5042254;28;20452;-84
2022/03/29 01:42:17;;;;;;;396.93;379.63;;;7.60;99.90;;;;;;5043176;28;20448;-84
2022/03/29 01:44:44;;;;;;;397.07;379.23;;;7.50;99.90;;;;;;5042465;28;20476;-84
2022/03/29 01:47:11;;;;;;;395.43;377.50;;;7.70;99.90;;;;;;5042677;28;20995;-83
2022/03/29 01:49:38;;;;;;;393.80;376.63;;;7.60;99.90;;;;;;5041978;28;20451;-84
2022/03/29 01:52:06;;;;;;;416.70;397.60;;;7.60;99.90;;;;;;5042616;28;20819;-83
2022/03/29 01:54:34;;;;;;;439.63;419.73;;;7.40;99.90;;;;;;5042102;28;20452;-84
2022/03/29 01:57:03;;;;;;;468.20;445.47;;;7.50;99.90;;;;;;5042992;28;20448;-84
2022/03/29 02:00:30;;;;;;;501.07;476.17;;;7.30;99.90;;;;;;5041934;28;20991;-84
2022/03/29 02:02:17;;;;;;;542.30;515.57;;;7.30;99.90;;;;;;5042177;28;20451;-84
2022/03/29 02:04:43;;;;;;;533.93;506.03;;;7.30;99.90;;;;;;5042051;28;20480;-84
2022/03/29 02:07:10;;;;;;;537.70;509.37;;;7.20;99.90;;;;;;5042095;28;20945;-84
2022/03/29 02:09:37;;;;;;;530.83;503.77;;;7.30;99.90;;;;;;5041868;28;20456;-83
2022/03/29 02:12:06;;;;;;;550.40;521.70;;;7.40;99.90;;;;;;5042401;28;21043;-84
2022/03/29 02:14:34;;;;;;;542.60;514.20;;;7.30;99.90;;;;;;5041963;28;20463;-83
2022/03/29 02:17:00;;;;;;;541.70;512.50;;;7.10;99.90;;;;;;5041776;28;20544;-83
2022/03/29 02:19:27;;;;;;;529.03;500.33;;;7.30;99.90;;;;;;5041344;28;20459;-84
2022/03/29 02:21:54;;;;;;;550.33;520.43;;;7.20;99.90;;;;;;5041475;28;20457;-84
2022/03/29 02:24:21;;;;;;;582.67;550.27;;;7.20;99.90;;;;;;5041622;28;20455;-83
2022/03/29 02:26:47;;;;;;;563.63;533.50;;;7.40;99.90;;;;;;5040889;28;20456;-84
2022/03/29 02:29:16;;;;;;;511.87;484.97;;;7.50;99.90;;;;;;5041717;28;20464;-83
2022/03/29 02:31:42;;;;;;;497.30;472.50;;;7.50;99.90;;;;;;5041381;28;20971;-84
2022/03/29 02:34:09;;;;;;;479.53;455.33;;;7.40;99.90;;;;;;5042124;28;20457;-84
2022/03/29 02:36:36;;;;;;;486.23;460.07;;;7.50;99.90;;;;;;5042147;28;20848;-83
2022/03/29 02:39:03;;;;;;;494.93;470.73;;;7.50;99.90;;;;;;5041676;28;20461;-84
2022/03/29 02:41:29;;;;;;;513.13;487.80;;;7.40;99.90;;;;;;5041637;28;20448;-84
2022/03/29 02:43:56;;;;;;;522.10;495.00;;;7.40;99.90;;;;;;5041622;28;20448;-84
2022/03/29 02:46:24;;;;;;;524.00;496.90;;;7.30;99.90;;;;;;5041862;28;20487;-83
2022/03/29 02:48:51;;;;;;;518.40;491.60;;;7.50;99.90;;;;;;5041354;28;20480;-84
2022/03/29 02:51:17;;;;;;;521.43;493.93;;;7.60;99.90;;;;;;5041493;28;20456;-84
2022/03/29 02:53:44;;;;;;;515.60;488.87;;;7.50;99.90;;;;;;5041727;28;20484;-84
2022/03/29 02:56:11;;;;;;;537.37;508.37;;;7.40;99.90;;;;;;5041444;28;20483;-84
2022/03/29 02:58:38;;;;;;;542.50;513.30;;;7.40;99.90;;;;;;5041247;28;20452;-84
2022/03/29 03:01:05;;;;;;;537.80;509.63;;;7.50;99.90;;;;;;5041227;28;20456;-84
2022/03/29 03:03:33;;;;;;;537.07;508.27;;;7.60;99.90;;;;;;5041470;28;20445;-84
2022/03/29 03:06:00;;;;;;;530.03;501.17;;;7.40;99.90;;;;;;5040961;28;20480;-84
2022/03/29 03:08:27;;;;;;;525.67;498.10;;;7.50;99.90;;;;;;5040831;28;20445;-84
2022/03/29 03:10:53;;;;;;;535.23;504.63;;;7.50;99.90;;;;;;5040949;28;20836;-83
2022/03/29 03:13:20;;;;;;;553.50;523.33;;;7.50;99.90;;;;;;5040931;28;20487;-84
2022/03/29 03:15:47;;;;;;;561.00;530.50;;;7.50;99.90;;;;;;5041088;28;20481;-84
2022/03/29 03:18:14;;;;;;;539.10;509.93;;;7.50;99.90;;;;;;5040785;28;20463;-83
2022/03/29 03:20:42;;;;;;;529.43;500.37;;;7.50;99.90;;;;;;5040489;28;20448;-84
2022/03/29 03:23:09;;;;;;;528.57;501.20;;;7.80;99.90;;;;;;5040830;28;20460;-84
2022/03/29 03:25:36;;;;;;;548.67;519.37;;;7.60;99.90;;;;;;5040986;28;21003;-84
2022/03/29 03:28:02;;;;;;;534.87;506.77;;;7.60;99.90;;;;;;5040094;28;20869;-83
2022/03/29 03:30:29;;;;;;;528.13;499.70;;;7.60;99.90;;;;;;5040544;28;20459;-83
2022/03/29 03:32:56;;;;;;;530.73;501.80;;;7.60;99.90;;;;;;5040443;28;20476;-84
2022/03/29 03:35:23;;;;;;;514.87;488.10;;;7.60;99.90;;;;;;5040507;28;20854;-83
2022/03/29 03:37:51;;;;;;;512.60;485.97;;;7.60;99.90;;;;;;5040827;28;20456;-83
2022/03/29 03:40:18;;;;;;;495.63;469.07;;;7.60;99.90;;;;;;5040292;28;20456;-84
2022/03/29 03:42:45;;;;;;;548.70;518.70;;;7.40;99.90;;;;;;5039412;28;20440;-83
2022/03/29 03:45:12;;;;;;;542.67;512.47;;;7.50;99.90;;;;;;5039889;28;21009;-84
2022/03/29 03:47:39;;;;;;;539.83;510.53;;;7.50;99.90;;;;;;5040048;28;20453;-84
2022/03/29 03:50:07;;;;;;;529.30;500.57;;;7.50;99.90;;;;;;5039821;28;20464;-83
2022/03/29 03:52:34;;;;;;;518.93;491.33;;;7.50;99.90;;;;;;5040213;28;20476;-83
2022/03/29 03:55:04;;;;;;;522.10;493.53;;;7.50;99.90;;;;;;5039991;28;20476;-84
2022/03/29 03:57:31;;;;;;;535.43;505.63;;;7.50;99.90;;;;;;5040152;28;20884;-84
2022/03/29 03:59:58;;;;;;;557.37;527.03;;;7.60;99.90;;;;;;5039464;28;20842;-83
2022/03/29 04:02:25;;;;;;;576.30;544.07;;;7.40;99.90;;;;;;5038653;28;20449;-83
2022/03/29 04:04:52;;;;;;;599.77;564.47;;;7.40;99.90;;;;;;5038592;28;20484;-84
2022/03/29 04:07:18;;;;;;;582.47;549.47;;;7.30;99.90;;;;;;5042522;28;20475;-82
2022/03/29 04:09:45;;;;;;;582.47;551.00;;;7.30;99.90;;;;;;5041334;28;20452;-84
2022/03/29 04:12:13;;;;;;;598.77;565.40;;;7.30;99.90;;;;;;5042116;28;20455;-83
2022/03/29 04:14:40;;;;;;;658.67;621.40;;;7.30;99.90;;;;;;5042190;28;20503;-84
2022/03/29 04:17:08;;;;;;;654.27;616.17;;;7.20;99.90;;;;;;5041388;28;20455;-83
2022/03/29 04:19:35;;;;;;;665.13;627.00;;;7.20;99.90;;;;;;5041238;28;20483;-84
2022/03/29 04:22:01;;;;;;;731.10;687.17;;;7.10;99.90;;;;;;5041000;28;20720;-82
2022/03/29 04:24:28;;;;;;;739.03;694.97;;;7.00;99.90;;;;;;5040603;28;20455;-84
2022/03/29 04:26:55;;;;;;;716.63;673.93;;;6.80;99.90;;;;;;5042329;28;20526;-83
2022/03/29 04:29:23;;;;;;;740.47;696.47;;;6.90;99.90;;;;;;5042344;28;20452;-84
2022/03/29 04:31:52;;;;;;;735.07;690.60;;;6.70;99.90;;;;;;5041640;28;20456;-84
2022/03/29 04:34:19;;;;;;;803.17;753.47;;;6.60;99.90;;;;;;5041777;28;20472;-83
2022/03/29 04:36:45;;;;;;;806.10;756.10;;;6.50;99.90;;;;;;5041365;28;20486;-84
2022/03/29 04:39:12;;;;;;;824.17;773.47;;;6.40;99.90;;;;;;5040554;28;20457;-84
2022/03/29 04:41:39;;;;;;;809.83;759.50;;;6.30;99.90;;;;;;5041009;28;20881;-84
2022/03/29 04:44:06;;;;;;;839.33;787.17;;;6.30;99.90;;;;;;5041031;28;20459;-84
2022/03/29 04:46:34;;;;;;;881.00;822.90;;;6.20;99.90;;;;;;5040758;28;20479;-83
2022/03/29 04:49:01;;;;;;;867.97;808.93;;;6.10;99.90;;;;;;5041483;28;20451;-84
2022/03/29 04:51:28;;;;;;;888.33;828.53;;;6.20;99.90;;;;;;5044913;28;20452;-83
2022/03/29 04:53:54;;;;;;;884.13;824.83;;;6.20;99.90;;;;;;5044651;28;20479;-84
2022/03/29 04:56:21;;;;;;;892.33;831.83;;;6.30;99.90;;;;;;5045968;28;20852;-83
2022/03/29 04:58:48;;;;;;;894.20;831.53;;;6.20;99.90;;;;;;5044426;28;20460;-82
2022/03/29 05:01:14;;;;;;;903.67;841.13;;;6.30;99.90;;;;;;5045145;28;20448;-83
2022/03/29 05:03:43;;;;;;;897.10;837.60;;;6.20;99.90;;;;;;5045835;28;20452;-83
2022/03/29 05:06:10;;;;;;;891.67;833.07;;;6.20;99.90;;;;;;5064923;23;20490;-80
2022/03/29 05:08:39;;;;;;;897.97;839.90;;;6.20;99.90;;;;;;5039588;28;20444;-81
2022/03/29 05:11:06;;;;;;;899.33;841.10;;;6.20;99.90;;;;;;5039822;28;20467;-81
2022/03/29 05:13:33;;;;;;;895.80;837.60;;;6.30;99.90;;;;;;5039851;28;20468;-81
2022/03/29 05:16:01;;;;;;;906.93;850.53;;;6.10;99.90;;;;;;5039547;28;20530;-82
2022/03/29 05:18:28;;;;;;;896.73;839.30;;;6.10;99.90;;;;;;5039571;28;20508;-81
2022/03/29 05:20:56;;;;;;;927.10;865.97;;;6.00;99.90;;;;;;5040297;28;20452;-81
2022/03/29 05:23:23;;;;;;;928.20;865.90;;;6.00;99.90;;;;;;5039527;28;20457;-80
2022/03/29 05:25:50;;;;;;;932.17;866.23;;;6.00;99.90;;;;;;5040082;28;20476;-80
2022/03/29 05:28:17;;;;;;;937.23;870.13;;;6.10;99.90;;;;;;5039873;28;20875;-80
2022/03/29 05:30:43;;;;;;;913.13;847.97;;;6.10;99.90;;;;;;5040021;28;20464;-80
2022/03/29 05:33:15;;;;;;;941.83;873.10;;;6.10;99.90;;;;;;5039378;28;20475;-80
2022/03/29 05:35:43;;;;;;;936.37;867.80;;;6.10;99.90;;;;;;5039284;28;20472;-79
2022/03/29 05:38:12;;;;;;;915.90;851.23;;;6.30;99.90;;;;;;5039348;28;20448;-81
2022/03/29 05:40:39;;;;;;;914.13;851.33;;;6.40;99.90;;;;;;5039035;28;20455;-82
2022/03/29 05:43:32;;;;;;;904.40;843.40;;;6.30;99.90;;;;;;5039388;28;20448;-81
2022/03/29 05:49:34;;;;;;;904.50;843.80;;;6.60;99.90;;;;;;5022950;28;20478;-80
2022/03/29 05:58:56;;;;;;;859.90;805.33;;;6.60;99.90;;;;;;4980994;28;20859;-82
2022/03/29 06:07:38;;;;;;;883.87;827.30;;;6.70;99.90;;;;;;5038103;28;20822;-81
2022/03/29 06:10:09;;;;;;;861.00;804.63;;;6.70;99.90;;;;;;5038662;28;20443;-83
2022/03/29 06:22:16;;;;;;;743.23;697.23;;;7.30;99.90;;;;;;4996530;28;20512;-82
2022/03/29 06:24:46;;;;;;;696.70;655.17;;;7.20;99.90;;;;;;5039205;28;20444;-81
2022/03/29 06:37:16;;;;;;;509.70;481.60;;;7.90;99.90;;;;;;5006747;23;20505;-81
2022/03/29 06:43:38;;;;;;;;;;;;;;;;;;;;;
2022/03/29 06:52:46;;;;;;;301.53;285.93;;;8.60;99.90;;;;;;5006286;28;20513;-81
2022/03/29 06:55:44;;;;;;;235.73;223.33;;;8.80;99.90;;;;;;5018958;28;20472;-81
2022/03/29 07:01:34;;;;;;;202.93;191.10;;;8.80;99.90;;;;;;5018194;28;20838;-81
2022/03/29 07:20:46;;;;;;;75.10;67.97;;;9.20;99.90;;;;;;4931481;28;20466;-81
2022/03/29 07:23:58;;;;;;;56.63;50.40;;;9.30;99.90;;;;;;5019583;28;20953;-81
2022/03/29 07:26:35;;;;;;;65.73;58.57;;;9.40;99.90;;;;;;4988132;28;20475;-82
2022/03/29 07:35:51;;;;;;;61.30;47.77;;;9.70;99.90;;;;;;4961595;28;21028;-83
2022/03/29 07:53:45;;;;;;;46.97;31.67;;;11.30;90.00;;;;;;5022858;28;20488;-81
2022/03/29 07:59:11;;;;;;;47.63;31.20;;;11.70;86.80;;;;;;5011312;23;20488;-83
2022/03/29 08:01:37;;;;;;;47.27;32.10;;;11.90;82.90;;;;;;5040728;28;20456;-84
2022/03/29 08:04:04;;;;;;;44.13;31.50;;;12.10;78.90;;;;;;5040421;28;20459;-82
2022/03/29 08:06:31;;;;;;;49.50;30.40;;;12.40;77.30;;;;;;5040662;28;20543;-83
2022/03/29 08:08:58;;;;;;;43.30;31.63;;;12.70;72.50;;;;;;5040649;28;20478;-84
2022/03/29 08:11:27;;;;;;;45.50;30.20;;;12.90;67.30;;;;;;5040912;28;20453;-83
2022/03/29 08:13:56;;;;;;;45.47;28.70;;;12.80;65.50;;;;;;5038615;28;20522;-84
2022/03/29 08:16:22;;;;;;;43.53;30.40;;;13.20;63.90;;;;;;5041849;28;20452;-84
2022/03/29 08:18:49;;;;;;;46.87;31.07;;;13.50;61.50;;;;;;5039999;28;20480;-82
2022/03/29 08:24:00;;;;;;;43.53;26.90;;;13.60;57.30;;;;;;5039058;28;20483;-83
2022/03/29 08:26:29;;;;;;;46.43;29.37;;;13.80;55.60;;;;;;5040258;28;20456;-84
2022/03/29 08:28:56;;;;;;;45.40;29.63;;;13.80;53.60;;;;;;5039071;28;20498;-84
2022/03/29 08:31:23;;;;;;;46.17;31.67;;;13.50;54.90;;;;;;5039355;28;20460;-83
2022/03/29 08:33:50;;;;;;;39.90;29.87;;;13.70;54.20;;;;;;5041371;28;20476;-84
2022/03/29 08:36:16;;;;;;;40.40;27.37;;;14.10;54.90;;;;;;5042660;28;20453;-84
2022/03/29 08:38:44;;;;;;;39.70;27.33;;;14.20;50.40;;;;;;5040847;28;20473;-86
2022/03/29 08:41:11;;;;;;;41.67;26.53;;;14.30;48.10;;;;;;5041234;28;20514;-86
2022/03/29 08:43:40;;;;;;;38.67;28.80;;;14.40;46.90;;;;;;5040587;28;20452;-87
2022/03/29 08:46:06;;;;;;;41.33;28.27;;;14.70;47.00;;;;;;5037626;28;20460;-87
2022/03/29 08:48:33;;;;;;;37.10;25.50;;;14.60;44.50;;;;;;5037745;28;20806;-84
2022/03/29 08:51:02;;;;;;;43.07;28.83;;;14.50;44.80;;;;;;5038092;28;20452;-84
2022/03/29 08:53:29;;;;;;;39.47;28.50;;;14.40;46.40;;;;;;5038746;28;20475;-86
2022/03/29 08:55:56;;;;;;;39.73;26.63;;;14.30;42.50;;;;;;5041309;28;20460;-85
2022/03/29 08:58:24;;;;;;;39.37;27.77;;;14.00;42.90;;;;;;5041306;28;20460;-84
2022/03/29 09:00:53;;;;;;;40.60;28.30;;;13.80;45.50;;;;;;5042246;28;20569;-85
2022/03/29 09:03:20;;;;;;;40.03;28.97;;;13.80;47.40;;;;;;5041463;28;20941;-87
2022/03/29 09:05:48;;;;;;;47.03;29.80;;;13.60;50.20;;;;;;5041378;28;20476;-82
2022/03/29 09:08:16;;;;;;;36.40;26.77;;;13.30;50.80;;;;;;5041986;28;20543;-84
2022/03/29 09:10:44;;;;;;;39.00;27.77;;;13.40;51.30;;;;;;5042534;28;20558;-84
2022/03/29 09:13:16;;;;;;;42.03;28.33;;;13.50;49.00;;;;;;5041340;28;20502;-83
2022/03/29 09:15:43;;;;;;;40.03;28.30;;;13.50;48.70;;;;;;5038471;28;20476;-84
2022/03/29 09:18:12;;;;;;;35.03;28.20;;;13.80;50.20;;;;;;5042031;28;20984;-84
2022/03/29 09:20:38;;;;;;;41.67;28.87;;;13.90;47.50;;;;;;5044210;28;20480;-84
2022/03/29 09:23:06;;;;;;;173.10;56.13;;;14.10;47.70;;;;;;5043600;28;20459;-85
2022/03/29 09:25:37;;;;;;;35.43;23.47;;;14.10;47.70;;;;;;5044159;28;20457;-85
2022/03/29 09:28:06;;;;;;;35.63;25.77;;;14.30;43.70;;;;;;5044804;28;20453;-82
2022/03/29 09:30:38;;;;;;;40.03;27.70;;;14.60;42.80;;;;;;5046879;28;20469;-84
2022/03/29 09:33:07;;;;;;;35.60;26.60;;;14.80;41.90;;;;;;5042738;28;20453;-83
2022/03/29 09:35:51;;;;;;;36.53;28.40;;;15.20;39.30;;;;;;5046009;28;20480;-85
2022/03/29 09:38:23;;;;;;;40.10;27.67;;;15.20;39.90;;;;;;5048885;28;20835;-83
2022/03/29 09:40:50;;;;;;;38.37;27.70;;;14.80;36.00;;;;;;5047595;28;20458;-84
2022/03/29 09:43:17;;;;;;;34.73;25.67;;;15.30;38.30;;;;;;5048046;28;20451;-84
2022/03/29 09:45:48;;;;;;;49.97;29.60;;;14.80;37.10;;;;;;5049217;28;20458;-84
2022/03/29 09:48:27;;;;;;;44.80;26.43;;;14.60;38.50;;;;;;5048100;28;20451;-84
2022/03/29 09:50:56;;;;;;;42.57;28.03;;;14.50;36.20;;;;;;5045941;28;20453;-83
2022/03/29 09:53:40;;;;;;;35.13;25.93;;;15.00;36.50;;;;;;5044906;28;20756;-85
2022/03/29 09:56:10;;;;;;;40.83;26.97;;;15.10;34.30;;;;;;5044465;28;20486;-86
2022/03/29 09:58:37;;;;;;;31.00;22.30;;;15.40;36.50;;;;;;5039373;28;20548;-85
2022/03/29 10:01:05;;;;;;;31.50;22.63;;;15.50;31.10;;;;;;5042142;28;20458;-85
2022/03/29 10:03:34;;;;;;;32.10;25.43;;;15.80;29.20;;;;;;5044585;28;20460;-84
2022/03/29 10:06:05;;;;;;;32.37;24.80;;;15.60;33.30;;;;;;5045026;28;20475;-85
2022/03/29 10:11:18;;;;;;;31.93;20.67;;;16.30;27.00;;;;;;5041417;28;20485;-85
2022/03/29 10:13:46;;;;;;;30.03;22.40;;;16.50;24.60;;;;;;5043048;28;20455;-84
2022/03/29 10:16:14;;;;;;;27.87;21.97;;;17.30;26.00;;;;;;5042571;28;20789;-84
2022/03/29 10:18:42;;;;;;;41.00;22.00;;;17.60;22.70;;;;;;5043592;28;20939;-85
2022/03/29 10:21:13;;;;;;;34.07;22.20;;;17.80;20.90;;;;;;5044076;28;20453;-86
2022/03/29 10:23:42;;;;;;;25.97;21.47;;;18.50;18.60;;;;;;5043226;28;20447;-86
2022/03/29 10:26:10;;;;;;;27.67;18.63;;;18.50;18.60;;;;;;5041273;28;20979;-84
2022/03/29 10:28:36;;;;;;;29.83;22.33;;;18.40;16.40;;;;;;5038537;28;20536;-84
2022/03/29 10:31:04;;;;;;;27.67;21.50;;;18.60;16.30;;;;;;5039171;28;20952;-85
2022/03/29 10:33:33;;;;;;;27.83;20.80;;;19.00;14.00;;;;;;5039567;28;20460;-84
2022/03/29 10:36:05;;;;;;;23.63;18.50;;;19.80;12.10;;;;;;5037681;28;20522;-85
2022/03/29 10:38:55;;;;;;;23.50;19.07;;;20.30;9.30;;;;;;5037108;28;20458;-85
2022/03/29 10:41:51;;;;;;;25.43;18.90;;;20.90;7.50;;;;;;5037234;28;20532;-85
2022/03/29 10:44:19;;;;;;;18.53;16.27;;;20.60;6.20;;;;;;5037308;28;20508;-85
2022/03/29 10:46:47;;;;;;;27.53;17.77;;;20.00;8.90;;;;;;5036609;28;20534;-85
2022/03/29 10:49:24;;;;;;;20.97;17.77;;;21.40;3.70;;;;;;5037176;28;20987;-85
2022/03/29 10:51:53;;;;;;;21.10;17.83;;;21.40;5.50;;;;;;5038879;28;20479;-86
2022/03/29 10:54:53;;;;;;;21.27;18.37;;;20.90;1.10;;;;;;5042015;28;20493;-86
2022/03/29 10:57:24;;;;;;;24.17;20.10;;;20.60;2.50;;;;;;5018457;28;20888;-85
2022/03/29 10:59:58;;;;;;;26.67;22.57;;;20.90;1.00;;;;;;5017466;28;20876;-85
2022/03/29 11:02:26;;;;;;;28.13;22.93;;;22.30;1.00;;;;;;5016930;28;20495;-84
2022/03/29 11:05:07;;;;;;;34.97;24.47;;;20.70;2.60;;;;;;5018735;28;20999;-85
2022/03/29 11:07:35;;;;;;;29.50;24.67;;;21.30;2.50;;;;;;5015665;28;20457;-85
2022/03/29 11:10:11;;;;;;;30.23;23.40;;;20.00;4.50;;;;;;5016329;28;20472;-84
2022/03/29 11:12:40;;;;;;;29.60;21.03;;;20.30;4.70;;;;;;5020562;28;20453;-85
2022/03/29 11:15:46;;;;;;;30.57;24.30;;;18.80;7.40;;;;;;5017439;28;20456;-86
2022/03/29 11:18:43;;;;;;;31.77;24.53;;;17.70;10.50;;;;;;5020203;28;20452;-84
2022/03/29 11:21:10;;;;;;;32.20;23.27;;;17.50;14.50;;;;;;4938784;29;20544;-83
2022/03/29 11:23:40;;;;;;;56.23;40.40;;;16.90;17.50;;;;;;4999091;28;20464;-86
2022/03/29 11:26:12;;;;;;;37.83;23.90;;;16.40;22.80;;;;;;5017169;28;20484;-85
2022/03/29 11:28:48;;;;;;;58.00;39.17;;;15.70;25.90;;;;;;5018513;28;20489;-85
2022/03/29 11:31:15;;;;;;;52.50;36.43;;;15.30;29.90;;;;;;5016302;28;20457;-84
2022/03/29 11:33:45;;;;;;;49.83;30.37;;;14.90;30.50;;;;;;5015544;28;20459;-84
2022/03/29 11:36:12;;;;;;;66.23;45.03;;;14.80;31.50;;;;;;5015870;28;20452;-82
2022/03/29 11:38:39;;;;;;;67.17;40.30;;;15.10;35.20;;;;;;5015523;28;20483;-85
2022/03/29 11:41:06;;;;;;;56.57;36.90;;;14.80;32.80;;;;;;5014985;28;20456;-85
2022/03/29 11:43:36;;;;;;;48.63;29.50;;;14.40;33.60;;;;;;5014920;28;20461;-84
2022/03/29 11:46:03;;;;;;;70.00;43.57;;;14.40;35.70;;;;;;5015474;28;20509;-85
2022/03/29 11:48:30;;;;;;;59.47;39.37;;;14.30;34.50;;;;;;5015926;28;20463;-85
2022/03/29 11:51:00;;;;;;;42.47;27.27;;;14.50;34.70;;;;;;5016793;28;20465;-85
2022/03/29 11:53:30;;;;;;;55.23;34.90;;;14.30;34.10;;;;;;5016670;28;20464;-85
2022/03/29 11:56:01;;;;;;;46.97;27.37;;;14.30;34.80;;;;;;5015263;28;20466;-85
2022/03/29 11:58:31;;;;;;;70.47;42.63;;;14.20;34.80;;;;;;5017309;28;20896;-84
2022/03/29 12:01:02;;;;;;;75.40;43.87;;;13.90;37.60;;;;;;5016460;28;20922;-85
2022/03/29 12:03:34;;;;;;;72.67;39.10;;;13.80;38.60;;;;;;5015727;28;20462;-84
2022/03/29 12:06:09;;;;;;;76.80;46.67;;;13.60;38.40;;;;;;5015396;28;20492;-84
2022/03/29 12:08:51;;;;;;;71.17;45.20;;;13.40;39.20;;;;;;5014784;28;20506;-84
2022/03/29 12:11:20;;;;;;;72.50;42.00;;;13.50;40.20;;;;;;5016023;28;20955;-83
2022/03/29 12:13:48;;;;;;;67.17;40.17;;;13.40;39.60;;;;;;5015512;28;20954;-84
2022/03/29 12:16:24;;;;;;;63.50;42.53;;;13.40;39.20;;;;;;5016150;28;20453;-84
2022/03/29 12:18:52;;;;;;;68.57;37.00;;;13.20;42.30;;;;;;5014756;28;20496;-84
2022/03/29 12:21:20;;;;;;;56.63;31.03;;;13.10;42.40;;;;;;5014299;28;20835;-84
2022/03/29 12:23:50;;;;;;;54.97;31.90;;;12.90;41.50;;;;;;5015863;28;20484;-84
2022/03/29 12:26:19;;;;;;;78.60;47.37;;;12.90;41.50;;;;;;5015807;28;20473;-82
2022/03/29 12:28:47;;;;;;;79.93;49.87;;;13.00;41.70;;;;;;5014526;28;20479;-84
2022/03/29 12:31:15;;;;;;;64.63;43.10;;;13.50;41.90;;;;;;5015607;28;20461;-84
2022/03/29 12:33:44;;;;;;;57.23;34.10;;;13.50;39.60;;;;;;5015238;28;20458;-85
2022/03/29 12:36:13;;;;;;;73.90;46.60;;;13.50;38.30;;;;;;5014228;28;20453;-85
2022/03/29 12:38:45;;;;;;;53.83;32.93;;;13.80;38.60;;;;;;5014688;28;20565;-84
2022/03/29 12:41:13;;;;;;;74.60;46.00;;;13.60;37.80;;;;;;5014733;28;20459;-85
2022/03/29 12:43:40;;;;;;;74.50;47.00;;;13.50;39.50;;;;;;5016183;28;20454;-85
2022/03/29 12:46:10;;;;;;;66.03;44.17;;;14.00;38.20;;;;;;5015501;28;20477;-84
2022/03/29 12:48:38;;;;;;;63.23;41.77;;;14.00;36.20;;;;;;5013838;28;20477;-85
2022/03/29 12:51:07;;;;;;;73.60;47.97;;;14.10;36.40;;;;;;5014497;28;20833;-84
2022/03/29 12:53:35;;;;;;;77.70;41.93;;;14.20;36.80;;;;;;5013679;28;20458;-83
2022/03/29 12:56:09;;;;;;;76.10;48.97;;;14.00;36.30;;;;;;5017031;28;20897;-85
2022/03/29 12:58:38;;;;;;;76.50;44.27;;;14.00;37.80;;;;;;5021352;28;20512;-82
2022/03/29 13:01:07;;;;;;;81.73;51.17;;;14.10;37.90;;;;;;5038981;28;20518;-85
2022/03/29 13:03:38;;;;;;;85.80;49.60;;;14.30;37.80;;;;;;5039712;28;20456;-85
2022/03/29 13:06:06;;;;;;;72.63;49.93;;;14.20;38.20;;;;;;5037968;28;21050;-85
2022/03/29 13:08:33;;;;;;;66.20;36.80;;;14.00;36.50;;;;;;5035820;28;20456;-84
2022/03/29 13:11:15;;;;;;;73.80;46.83;;;14.10;35.40;;;;;;5037332;28;20505;-84
2022/03/29 13:13:42;;;;;;;71.53;44.93;;;13.80;36.60;;;;;;5040275;28;20464;-84
2022/03/29 13:16:19;;;;;;;69.77;38.50;;;13.90;37.70;;;;;;5040649;28;20445;-84
2022/03/29 13:18:51;;;;;;;75.57;46.10;;;13.90;37.70;;;;;;5039613;28;20487;-84
2022/03/29 13:21:21;;;;;;;70.20;45.43;;;13.90;38.50;;;;;;5038843;28;20457;-85
2022/03/29 13:23:49;;;;;;;81.00;44.70;;;13.80;37.60;;;;;;5040706;28;20493;-86
2022/03/29 13:26:19;;;;;;;64.33;36.87;;;14.50;37.40;;;;;;5040356;28;20485;-84
2022/03/29 13:28:47;;;;;;;62.77;33.13;;;14.10;35.80;;;;;;5039362;28;20481;-83
2022/03/29 13:31:15;;;;;;;59.93;34.47;;;13.90;35.70;;;;;;5040016;28;20884;-81
2022/03/29 13:33:42;;;;;;;71.70;43.57;;;13.70;35.70;;;;;;5041744;28;20460;-85
2022/03/29 13:36:12;;;;;;;77.17;39.17;;;14.00;36.60;;;;;;5039053;28;20477;-84
2022/03/29 13:38:41;;;;;;;81.77;46.77;;;13.90;34.20;;;;;;5037676;28;20476;-84
2022/03/29 13:41:09;;;;;;;83.07;45.27;;;14.20;35.90;;;;;;5037870;28;20456;-82
2022/03/29 13:43:36;;;;;;;78.87;43.23;;;14.80;35.90;;;;;;5037940;28;20462;-84
2022/03/29 13:46:04;;;;;;;75.50;41.60;;;15.10;30.70;;;;;;5039548;28;20483;-83
2022/03/29 13:48:32;;;;;;;85.33;46.70;;;15.40;31.00;;;;;;5036662;28;20459;-84
2022/03/29 13:51:00;;;;;;;82.43;38.07;;;15.60;29.40;;;;;;5037743;28;20457;-83
2022/03/29 13:53:27;;;;;;;71.33;42.20;;;15.60;26.20;;;;;;5035976;28;20455;-84
2022/03/29 13:55:56;;;;;;;57.07;32.70;;;15.50;27.30;;;;;;5036357;28;20947;-84
2022/03/29 13:58:23;;;;;;;76.70;47.60;;;15.30;28.40;;;;;;5035576;28;20458;-83
2022/03/29 14:00:51;;;;;;;67.43;40.10;;;15.40;26.10;;;;;;5064432;23;20495;-84
2022/03/29 14:03:19;;;;;;;79.27;47.63;;;15.40;24.80;;;;;;5043925;28;20459;-84
2022/03/29 14:05:52;;;;;;;73.63;44.30;;;15.60;25.30;;;;;;5044213;28;20538;-84
2022/03/29 14:08:21;;;;;;;64.10;37.73;;;15.50;23.90;;;;;;5043822;28;20447;-83
2022/03/29 14:10:48;;;;;;;80.73;48.43;;;15.90;25.90;;;;;;5043551;28;20500;-84
2022/03/29 14:13:16;;;;;;;75.20;44.67;;;16.40;24.80;;;;;;5043484;28;20491;-85